createdAt,value
2022-08-09T00:04:10.737Z,11.80
2022-08-09T00:09:24.546Z,10.20
2022-08-09T00:14:36.213Z,6.90
2022-08-09T00:19:41.404Z,10.50
2022-08-09T00:24:54.269Z,8.80
2022-08-09T00:30:10.417Z,8.30
2022-08-09T00:35:29.514Z,6.70
2022-08-09T00:40:52.425Z,11.00
2022-08-09T00:45:55.977Z,6.60
2022-08-09T00:51:11.793Z,6.80
2022-08-09T00:56:16.647Z,6.20
2022-08-09T01:01:23.256Z,5.30
2022-08-09T01:06:54.255Z,6.60
2022-08-09T01:12:12.717Z,7.30
2022-08-09T01:17:22.334Z,6.20
2022-08-09T01:22:59.255Z,7.10
2022-08-09T01:28:05.969Z,6.30
2022-08-09T01:33:11.462Z,7.30
2022-08-09T01:38:19.298Z,9.10
2022-08-09T01:43:24.265Z,6.60
2022-08-09T01:48:31.526Z,9.90
2022-08-09T01:53:41.089Z,7.20
2022-08-09T01:58:49.140Z,6.50
2022-08-09T02:03:56.605Z,6.20
2022-08-09T02:08:59.974Z,6.50
2022-08-09T02:14:07.590Z,7.40
2022-08-09T02:19:12.319Z,7.00
2022-08-09T02:24:26.373Z,6.30
2022-08-09T02:29:33.972Z,6.80
2022-08-09T02:34:51.741Z,7.10
2022-08-09T02:40:10.510Z,6.80
2022-08-09T02:45:18.084Z,6.20
2022-08-09T02:50:29.283Z,7.80
2022-08-09T02:55:46.493Z,8.20
2022-08-09T03:01:04.389Z,7.40
2022-08-09T03:06:14.883Z,7.70
2022-08-09T03:12:06.514Z,9.30
2022-08-09T03:16:47.376Z,6.60
2022-08-09T03:21:52.362Z,7.60
2022-08-09T03:26:56.579Z,9.10
2022-08-09T03:32:00.794Z,5.70
2022-08-09T03:37:10.701Z,6.20
2022-08-09T03:42:28.910Z,7.50
2022-08-09T03:47:36.556Z,7.10
2022-08-09T03:52:46.079Z,7.10
2022-08-09T03:58:03.157Z,7.80
2022-08-09T04:03:15.266Z,7.00
2022-08-09T04:08:28.942Z,8.80
2022-08-09T04:14:37.646Z,9.70
2022-08-09T04:18:55.430Z,6.90
2022-08-09T04:24:01.850Z,5.70
2022-08-09T04:29:10.782Z,12.80
2022-08-09T04:34:19.100Z,8.10
2022-08-09T04:39:33.686Z,6.10
2022-08-09T04:44:49.389Z,5.90
2022-08-09T04:49:55.577Z,7.40
2022-08-09T04:55:00.850Z,7.90
2022-08-09T05:00:06.408Z,7.70
2022-08-09T05:05:10.786Z,6.40
2022-08-09T05:10:14.966Z,7.40
2022-08-09T05:15:38.706Z,7.00
2022-08-09T05:20:41.506Z,8.50
2022-08-09T05:25:50.846Z,6.80
2022-08-09T05:30:54.313Z,6.70
2022-08-09T05:35:58.906Z,10.50
2022-08-09T05:41:04.266Z,9.10
2022-08-09T05:46:07.335Z,7.20
2022-08-09T05:51:41.721Z,5.90
2022-08-09T05:56:33.478Z,7.90
2022-08-09T06:01:42.754Z,6.30
2022-08-09T06:06:49.763Z,7.50
2022-08-09T06:11:57.659Z,6.40
2022-08-09T06:17:00.951Z,7.50
2022-08-09T06:22:15.271Z,6.90
2022-08-09T06:27:18.735Z,6.50
2022-08-09T06:32:58.888Z,5.50
2022-08-09T06:37:52.994Z,5.90
2022-08-09T06:43:07.638Z,6.60
2022-08-09T06:48:16.421Z,4.90
2022-08-09T07:00:46.652Z,6.90
2022-08-09T07:03:51.864Z,6.00
2022-08-09T07:08:56.852Z,4.40
2022-08-09T07:14:04.930Z,6.80
2022-08-09T07:19:15.004Z,6.80
2022-08-09T07:24:18.678Z,6.10
2022-08-09T07:29:23.997Z,5.00
2022-08-09T07:34:26.982Z,5.90
2022-08-09T07:39:40.953Z,6.40
2022-08-09T07:44:52.128Z,5.40
2022-08-09T07:50:08.397Z,6.70
2022-08-09T07:55:12.617Z,6.20
2022-08-09T08:00:20.780Z,5.70
2022-08-09T08:05:57.713Z,6.30
2022-08-09T08:11:03.396Z,4.60
2022-08-09T08:16:31.713Z,5.60
2022-08-09T08:21:39.487Z,4.70
2022-08-09T08:26:55.591Z,4.60
2022-08-09T08:32:03.648Z,6.20
2022-08-09T08:37:15.729Z,4.80
2022-08-09T08:42:24.302Z,4.30
2022-08-09T08:47:38.595Z,4.70
2022-08-09T08:52:58.340Z,4.30
2022-08-09T08:58:02.926Z,4.50
2022-08-09T09:03:08.733Z,4.30
2022-08-09T09:08:30.633Z,4.50
2022-08-09T09:13:55.561Z,4.70
2022-08-09T09:24:38.032Z,4.90
2022-08-09T09:30:10.620Z,4.30
2022-08-09T09:35:10.161Z,5.50
2022-08-09T09:40:13.382Z,5.40
2022-08-09T09:45:26.617Z,5.00
2022-08-09T09:50:50.949Z,4.40
2022-08-09T09:56:04.152Z,8.60
2022-08-09T10:01:30.875Z,7.40
2022-08-09T10:06:47.030Z,3.90
2022-08-09T10:12:12.941Z,5.30
2022-08-09T10:17:39.179Z,5.60
2022-08-09T10:22:44.033Z,7.30
2022-08-09T10:27:55.986Z,6.40
2022-08-09T10:33:08.059Z,4.30
2022-08-09T10:38:13.700Z,4.30
2022-08-09T10:43:47.026Z,6.50
2022-08-09T10:54:14.483Z,4.60
2022-08-09T10:59:23.550Z,4.50
2022-08-09T11:04:36.080Z,4.20
2022-08-09T11:09:59.797Z,4.10
2022-08-09T11:15:33.605Z,4.50
2022-08-09T11:20:49.681Z,4.00
2022-08-09T11:25:54.801Z,4.40
2022-08-09T11:30:57.947Z,4.10
2022-08-09T11:36:01.859Z,4.50
2022-08-09T11:41:13.059Z,4.50
2022-08-09T11:46:18.436Z,3.90
2022-08-09T11:52:54.076Z,3.90
2022-08-09T11:56:53.755Z,3.70
2022-08-09T12:02:17.309Z,3.30
2022-08-09T12:07:28.030Z,3.40
2022-08-09T12:12:53.292Z,4.50
2022-08-09T12:17:59.234Z,4.30
2022-08-09T12:23:04.713Z,3.50
2022-08-09T12:29:11.901Z,5.20
2022-08-09T12:33:50.957Z,5.90
2022-08-09T12:38:58.058Z,4.60
2022-08-09T12:44:06.068Z,4.60
2022-08-09T12:49:11.776Z,7.70
2022-08-09T12:54:14.968Z,4.60
2022-08-09T12:59:21.263Z,3.60
2022-08-09T13:04:36.643Z,5.00
2022-08-09T13:09:43.207Z,5.20
2022-08-09T13:14:53.671Z,3.00
2022-08-09T13:20:09.492Z,6.50
2022-08-09T13:25:16.646Z,4.30
2022-08-09T13:30:48.717Z,5.80
2022-08-09T13:36:37.584Z,3.30
2022-08-09T13:41:46.175Z,3.90
2022-08-09T13:47:15.191Z,3.00
2022-08-09T13:51:58.842Z,5.30
2022-08-09T13:57:06.402Z,4.40
2022-08-09T14:02:10.394Z,4.30
2022-08-09T14:07:13.540Z,2.80
2022-08-09T14:12:17.016Z,6.20
2022-08-09T14:17:22.740Z,4.30
2022-08-09T14:22:26.905Z,4.30
2022-08-09T14:27:34.149Z,5.10
2022-08-09T14:32:54.309Z,3.40
2022-08-09T14:38:02.480Z,2.70
2022-08-09T14:43:06.946Z,3.50
2022-08-09T14:48:10.065Z,3.00
2022-08-09T14:53:19.379Z,2.80
2022-08-09T14:58:22.472Z,2.80
2022-08-09T15:03:27.280Z,3.90
2022-08-09T15:08:31.338Z,2.80
2022-08-09T15:13:48.663Z,4.30
2022-08-09T15:18:59.474Z,2.80
2022-08-09T15:24:12.385Z,3.50
2022-08-09T15:30:55.336Z,3.60
2022-08-09T15:34:42.457Z,3.60
2022-08-09T15:39:54.652Z,3.20
2022-08-09T15:45:03.937Z,7.60
2022-08-09T15:50:11.060Z,3.20
2022-08-09T15:55:20.276Z,4.60
2022-08-09T16:00:26.762Z,2.70
2022-08-09T16:05:47.288Z,4.30
2022-08-09T16:10:56.983Z,6.40
2022-08-09T16:16:04.659Z,6.50
2022-08-09T16:21:25.571Z,3.70
2022-08-09T16:26:33.694Z,4.00
2022-08-09T16:32:18.317Z,3.80
2022-08-09T16:37:03.874Z,3.90
2022-08-09T16:42:14.897Z,6.60
2022-08-09T16:48:40.827Z,4.60
2022-08-09T16:52:41.358Z,6.40
2022-08-09T16:58:10.259Z,5.80
2022-08-09T17:03:21.939Z,3.50
2022-08-09T17:08:43.269Z,4.50
2022-08-09T17:13:49.073Z,2.60
2022-08-09T17:24:20.558Z,6.00
2022-08-09T17:29:31.351Z,5.80
2022-08-09T17:35:01.324Z,4.80
2022-08-09T17:39:58.041Z,4.10
2022-08-09T17:45:01.366Z,3.80
2022-08-09T17:50:14.147Z,4.00
2022-08-09T17:55:47.240Z,4.10
2022-08-09T18:00:50.654Z,6.60
2022-08-09T18:05:58.135Z,3.60
2022-08-09T18:11:07.807Z,3.20
2022-08-09T18:16:11.138Z,4.10
2022-08-09T18:21:23.135Z,4.30
2022-08-09T18:26:27.029Z,5.60
2022-08-09T18:31:51.633Z,4.40
2022-08-09T18:36:54.674Z,5.40
2022-08-09T18:41:57.599Z,7.20
2022-08-09T18:47:07.776Z,7.10
2022-08-09T18:52:18.763Z,5.30
2022-08-09T18:57:43.574Z,6.20
2022-08-09T19:02:51.344Z,4.90
2022-08-09T19:08:03.697Z,4.10
2022-08-09T19:13:20.595Z,5.70
2022-08-09T19:18:33.756Z,4.70
2022-08-09T19:24:36.557Z,6.60
2022-08-09T19:29:09.778Z,4.10
2022-08-09T19:34:24.688Z,5.00
2022-08-09T19:40:02.839Z,6.10
2022-08-09T19:44:52.300Z,8.90
2022-08-09T19:50:07.191Z,5.10
2022-08-09T19:55:14.896Z,6.30
2022-08-09T20:00:18.811Z,6.30
2022-08-09T20:05:23.688Z,6.30
2022-08-09T20:10:36.520Z,8.30
2022-08-09T20:16:34.768Z,7.00
2022-08-09T20:21:08.416Z,7.10
2022-08-09T20:26:13.117Z,7.60
2022-08-09T20:31:19.206Z,8.40
2022-08-09T20:36:27.145Z,5.20
2022-08-09T20:41:35.579Z,6.20
2022-08-09T20:46:44.382Z,7.70
2022-08-09T20:51:50.354Z,6.50
2022-08-09T20:56:54.317Z,8.60
2022-08-09T21:01:57.606Z,6.40
2022-08-09T21:07:13.059Z,5.80
2022-08-09T21:18:23.029Z,6.50
2022-08-09T21:22:53.973Z,6.40
2022-08-09T21:27:57.781Z,7.30
2022-08-09T21:33:01.294Z,6.90
2022-08-09T21:38:07.170Z,6.40
2022-08-09T21:43:11.213Z,6.00
2022-08-09T21:48:27.256Z,6.70
2022-08-09T21:53:40.627Z,8.10
2022-08-09T21:58:44.678Z,7.90
2022-08-09T22:03:48.432Z,8.30
2022-08-09T22:14:14.853Z,8.30
2022-08-09T22:19:57.834Z,7.80
2022-08-09T22:26:04.074Z,7.00
2022-08-09T22:30:04.909Z,9.40
2022-08-09T22:36:00.996Z,8.40
2022-08-09T22:40:33.087Z,7.80
2022-08-09T22:48:14.953Z,8.40
2022-08-09T22:51:00.638Z,10.00
2022-08-09T22:56:31.426Z,8.30
2022-08-09T23:01:28.242Z,8.80
2022-08-09T23:06:51.406Z,8.50
2022-08-09T23:11:56.607Z,12.30
2022-08-09T23:16:59.563Z,10.50
2022-08-09T23:22:02.772Z,16.20
2022-08-09T23:27:06.405Z,15.40
2022-08-09T23:32:09.546Z,14.70
2022-08-09T23:37:12.685Z,15.00
2022-08-09T23:42:15.761Z,12.50
2022-08-09T23:47:19.054Z,12.10
2022-08-09T23:52:33.560Z,12.20
2022-08-09T23:57:44.962Z,10.60
